sensor_id;sensor_type;location;lat;lon;timestamp;P1;durP1;ratioP1;P2;durP2;ratioP2
7665;SDS011;3875;46.562;4.898;2023-04-01T00:00:57;9.07;;;2.00;;
7665;SDS011;3875;46.562;4.898;2023-04-01T00:03:24;9.63;;;2.03;;
7665;SDS011;3875;46.562;4.898;2023-04-01T00:05:52;5.97;;;1.73;;
7665;SDS011;3875;46.562;4.898;2023-04-01T00:08:18;16.50;;;2.10;;
7665;SDS011;3875;46.562;4.898;2023-04-01T00:10:44;7.47;;;2.00;;
7665;SDS011;3875;46.562;4.898;2023-04-01T00:13:10;11.37;;;2.17;;
7665;SDS011;3875;46.562;4.898;2023-04-01T00:15:36;6.23;;;1.83;;
7665;SDS011;3875;46.562;4.898;2023-04-01T00:18:02;7.67;;;2.23;;
7665;SDS011;3875;46.562;4.898;2023-04-01T00:20:28;8.93;;;2.17;;
7665;SDS011;3875;46.562;4.898;2023-04-01T00:22:54;10.93;;;2.73;;
7665;SDS011;3875;46.562;4.898;2023-04-01T00:25:21;7.10;;;2.13;;
7665;SDS011;3875;46.562;4.898;2023-04-01T00:27:47;9.10;;;2.30;;
7665;SDS011;3875;46.562;4.898;2023-04-01T00:30:12;8.43;;;2.07;;
7665;SDS011;3875;46.562;4.898;2023-04-01T00:32:38;7.97;;;2.17;;
7665;SDS011;3875;46.562;4.898;2023-04-01T00:35:04;7.80;;;1.83;;
7665;SDS011;3875;46.562;4.898;2023-04-01T00:37:30;7.73;;;1.90;;
7665;SDS011;3875;46.562;4.898;2023-04-01T00:39:56;8.93;;;2.13;;
7665;SDS011;3875;46.562;4.898;2023-04-01T00:42:22;11.53;;;1.80;;
7665;SDS011;3875;46.562;4.898;2023-04-01T00:44:50;10.90;;;2.40;;
7665;SDS011;3875;46.562;4.898;2023-04-01T00:47:17;5.57;;;1.63;;
7665;SDS011;3875;46.562;4.898;2023-04-01T00:49:45;13.77;;;2.43;;
7665;SDS011;3875;46.562;4.898;2023-04-01T00:52:15;9.13;;;2.17;;
7665;SDS011;3875;46.562;4.898;2023-04-01T00:54:44;7.83;;;2.03;;
7665;SDS011;3875;46.562;4.898;2023-04-01T00:57:16;9.37;;;2.43;;
7665;SDS011;3875;46.562;4.898;2023-04-01T01:00:03;13.17;;;1.93;;
7665;SDS011;3875;46.562;4.898;2023-04-01T01:02:32;11.60;;;2.00;;
7665;SDS011;3875;46.562;4.898;2023-04-01T01:04:59;6.47;;;1.60;;
7665;SDS011;3875;46.562;4.898;2023-04-01T01:10:10;9.77;;;1.90;;
7665;SDS011;3875;46.562;4.898;2023-04-01T01:24:06;8.53;;;2.70;;
7665;SDS011;3875;46.562;4.898;2023-04-01T01:32:22;8.00;;;1.73;;
7665;SDS011;3875;46.562;4.898;2023-04-01T01:37:45;7.50;;;1.77;;
7665;SDS011;3875;46.562;4.898;2023-04-01T01:40:15;5.40;;;2.00;;
7665;SDS011;3875;46.562;4.898;2023-04-01T01:42:43;7.13;;;1.60;;
7665;SDS011;3875;46.562;4.898;2023-04-01T01:45:15;5.70;;;1.73;;
7665;SDS011;3875;46.562;4.898;2023-04-01T01:47:44;6.10;;;1.23;;
7665;SDS011;3875;46.562;4.898;2023-04-01T01:50:11;5.93;;;1.70;;
7665;SDS011;3875;46.562;4.898;2023-04-01T01:52:37;7.07;;;1.67;;
7665;SDS011;3875;46.562;4.898;2023-04-01T01:55:22;5.33;;;1.50;;
7665;SDS011;3875;46.562;4.898;2023-04-01T01:58:00;8.73;;;1.80;;
7665;SDS011;3875;46.562;4.898;2023-04-01T02:00:33;7.27;;;1.87;;
7665;SDS011;3875;46.562;4.898;2023-04-01T02:03:00;3.63;;;1.20;;
7665;SDS011;3875;46.562;4.898;2023-04-01T02:05:27;6.53;;;2.00;;
7665;SDS011;3875;46.562;4.898;2023-04-01T02:07:57;5.73;;;1.87;;
7665;SDS011;3875;46.562;4.898;2023-04-01T02:10:33;5.33;;;1.23;;
7665;SDS011;3875;46.562;4.898;2023-04-01T02:13:04;9.67;;;1.73;;
7665;SDS011;3875;46.562;4.898;2023-04-01T02:15:37;7.67;;;1.90;;
7665;SDS011;3875;46.562;4.898;2023-04-01T02:18:08;14.77;;;2.00;;
7665;SDS011;3875;46.562;4.898;2023-04-01T02:20:34;7.10;;;2.00;;
7665;SDS011;3875;46.562;4.898;2023-04-01T02:23:02;10.63;;;2.03;;
7665;SDS011;3875;46.562;4.898;2023-04-01T02:25:29;6.07;;;1.53;;
7665;SDS011;3875;46.562;4.898;2023-04-01T02:27:58;5.73;;;1.60;;
7665;SDS011;3875;46.562;4.898;2023-04-01T02:30:25;11.00;;;2.20;;
7665;SDS011;3875;46.562;4.898;2023-04-01T02:32:54;6.70;;;2.13;;
7665;SDS011;3875;46.562;4.898;2023-04-01T02:35:21;6.90;;;1.53;;
7665;SDS011;3875;46.562;4.898;2023-04-01T02:37:48;9.47;;;1.70;;
7665;SDS011;3875;46.562;4.898;2023-04-01T02:40:17;5.17;;;2.00;;
7665;SDS011;3875;46.562;4.898;2023-04-01T02:42:43;6.10;;;1.60;;
7665;SDS011;3875;46.562;4.898;2023-04-01T02:45:09;4.63;;;1.67;;
7665;SDS011;3875;46.562;4.898;2023-04-01T02:47:35;11.47;;;2.30;;
7665;SDS011;3875;46.562;4.898;2023-04-01T02:50:01;7.43;;;1.67;;
7665;SDS011;3875;46.562;4.898;2023-04-01T02:52:27;6.67;;;1.90;;
7665;SDS011;3875;46.562;4.898;2023-04-01T02:54:54;4.93;;;1.50;;
7665;SDS011;3875;46.562;4.898;2023-04-01T02:57:21;3.50;;;1.17;;
7665;SDS011;3875;46.562;4.898;2023-04-01T02:59:47;7.57;;;1.70;;
7665;SDS011;3875;46.562;4.898;2023-04-01T03:02:13;7.93;;;1.60;;
7665;SDS011;3875;46.562;4.898;2023-04-01T03:04:39;5.17;;;1.67;;
7665;SDS011;3875;46.562;4.898;2023-04-01T03:07:05;3.90;;;1.37;;
7665;SDS011;3875;46.562;4.898;2023-04-01T03:09:31;4.93;;;1.40;;
7665;SDS011;3875;46.562;4.898;2023-04-01T03:11:57;4.27;;;1.30;;
7665;SDS011;3875;46.562;4.898;2023-04-01T03:14:25;4.53;;;1.40;;
7665;SDS011;3875;46.562;4.898;2023-04-01T03:16:51;4.13;;;1.33;;
7665;SDS011;3875;46.562;4.898;2023-04-01T03:19:17;5.17;;;1.33;;
7665;SDS011;3875;46.562;4.898;2023-04-01T03:21:42;5.80;;;1.53;;
7665;SDS011;3875;46.562;4.898;2023-04-01T03:24:08;2.97;;;1.33;;
7665;SDS011;3875;46.562;4.898;2023-04-01T03:26:33;6.20;;;1.50;;
7665;SDS011;3875;46.562;4.898;2023-04-01T03:28:59;6.97;;;1.50;;
7665;SDS011;3875;46.562;4.898;2023-04-01T03:31:25;3.97;;;1.40;;
7665;SDS011;3875;46.562;4.898;2023-04-01T03:33:51;8.57;;;1.60;;
7665;SDS011;3875;46.562;4.898;2023-04-01T03:36:17;3.40;;;1.10;;
7665;SDS011;3875;46.562;4.898;2023-04-01T03:38:43;8.63;;;1.33;;
7665;SDS011;3875;46.562;4.898;2023-04-01T03:41:13;4.83;;;1.37;;
7665;SDS011;3875;46.562;4.898;2023-04-01T03:43:40;5.73;;;1.20;;
7665;SDS011;3875;46.562;4.898;2023-04-01T03:46:06;4.13;;;1.27;;
7665;SDS011;3875;46.562;4.898;2023-04-01T03:48:32;5.33;;;1.40;;
7665;SDS011;3875;46.562;4.898;2023-04-01T03:50:58;4.47;;;1.50;;
7665;SDS011;3875;46.562;4.898;2023-04-01T03:53:23;4.33;;;1.50;;
7665;SDS011;3875;46.562;4.898;2023-04-01T03:55:49;3.00;;;1.30;;
7665;SDS011;3875;46.562;4.898;2023-04-01T03:58:16;3.60;;;1.13;;
7665;SDS011;3875;46.562;4.898;2023-04-01T04:00:42;8.70;;;1.20;;
7665;SDS011;3875;46.562;4.898;2023-04-01T04:03:08;5.93;;;1.90;;
7665;SDS011;3875;46.562;4.898;2023-04-01T04:05:33;5.77;;;1.57;;
7665;SDS011;3875;46.562;4.898;2023-04-01T04:07:59;8.00;;;1.57;;
7665;SDS011;3875;46.562;4.898;2023-04-01T04:10:25;5.57;;;1.50;;
7665;SDS011;3875;46.562;4.898;2023-04-01T04:12:50;7.23;;;1.77;;
7665;SDS011;3875;46.562;4.898;2023-04-01T04:15:16;4.37;;;1.50;;
7665;SDS011;3875;46.562;4.898;2023-04-01T04:17:43;6.47;;;1.40;;
7665;SDS011;3875;46.562;4.898;2023-04-01T04:20:10;4.27;;;1.27;;
7665;SDS011;3875;46.562;4.898;2023-04-01T04:22:36;7.03;;;1.30;;
7665;SDS011;3875;46.562;4.898;2023-04-01T04:25:01;2.93;;;0.97;;
7665;SDS011;3875;46.562;4.898;2023-04-01T04:27:27;4.47;;;1.20;;
7665;SDS011;3875;46.562;4.898;2023-04-01T04:29:53;4.00;;;0.90;;
7665;SDS011;3875;46.562;4.898;2023-04-01T04:32:18;6.50;;;2.07;;
7665;SDS011;3875;46.562;4.898;2023-04-01T04:34:44;5.20;;;1.87;;
7665;SDS011;3875;46.562;4.898;2023-04-01T04:37:10;5.43;;;1.50;;
7665;SDS011;3875;46.562;4.898;2023-04-01T04:39:36;5.07;;;1.20;;
7665;SDS011;3875;46.562;4.898;2023-04-01T04:42:01;7.13;;;1.57;;
7665;SDS011;3875;46.562;4.898;2023-04-01T04:44:27;4.27;;;1.30;;
7665;SDS011;3875;46.562;4.898;2023-04-01T04:46:53;4.47;;;1.37;;
7665;SDS011;3875;46.562;4.898;2023-04-01T04:49:18;5.87;;;1.37;;
7665;SDS011;3875;46.562;4.898;2023-04-01T04:51:44;3.80;;;1.60;;
7665;SDS011;3875;46.562;4.898;2023-04-01T04:54:10;2.63;;;1.03;;
7665;SDS011;3875;46.562;4.898;2023-04-01T04:56:36;5.00;;;1.07;;
7665;SDS011;3875;46.562;4.898;2023-04-01T04:59:01;5.60;;;1.40;;
7665;SDS011;3875;46.562;4.898;2023-04-01T05:01:27;5.93;;;1.80;;
7665;SDS011;3875;46.562;4.898;2023-04-01T05:03:53;5.97;;;1.73;;
7665;SDS011;3875;46.562;4.898;2023-04-01T05:06:19;5.30;;;1.83;;
7665;SDS011;3875;46.562;4.898;2023-04-01T05:08:45;3.93;;;1.23;;
7665;SDS011;3875;46.562;4.898;2023-04-01T05:11:12;6.07;;;1.60;;
7665;SDS011;3875;46.562;4.898;2023-04-01T05:16:58;5.93;;;1.30;;
7665;SDS011;3875;46.562;4.898;2023-04-01T05:19:55;5.00;;;1.17;;
7665;SDS011;3875;46.562;4.898;2023-04-01T05:22:44;4.90;;;1.40;;
7665;SDS011;3875;46.562;4.898;2023-04-01T05:25:17;9.73;;;1.67;;
7665;SDS011;3875;46.562;4.898;2023-04-01T05:27:51;6.90;;;1.37;;
7665;SDS011;3875;46.562;4.898;2023-04-01T05:30:32;7.17;;;1.70;;
7665;SDS011;3875;46.562;4.898;2023-04-01T05:36:34;8.27;;;1.90;;
7665;SDS011;3875;46.562;4.898;2023-04-01T05:39:06;4.20;;;1.40;;
7665;SDS011;3875;46.562;4.898;2023-04-01T05:41:54;6.13;;;1.57;;
7665;SDS011;3875;46.562;4.898;2023-04-01T05:47:40;7.63;;;1.70;;
7665;SDS011;3875;46.562;4.898;2023-04-01T05:54:01;6.53;;;1.50;;
7665;SDS011;3875;46.562;4.898;2023-04-01T05:57:09;3.00;;;1.20;;
7665;SDS011;3875;46.562;4.898;2023-04-01T05:59:40;2.90;;;1.10;;
7665;SDS011;3875;46.562;4.898;2023-04-01T06:02:06;6.57;;;1.97;;
7665;SDS011;3875;46.562;4.898;2023-04-01T06:04:40;8.87;;;1.70;;
7665;SDS011;3875;46.562;4.898;2023-04-01T06:07:17;9.90;;;1.73;;
7665;SDS011;3875;46.562;4.898;2023-04-01T06:26:57;7.30;;;1.20;;
7665;SDS011;3875;46.562;4.898;2023-04-01T06:35:45;6.97;;;1.60;;
7665;SDS011;3875;46.562;4.898;2023-04-01T06:53:10;6.93;;;2.30;;
7665;SDS011;3875;46.562;4.898;2023-04-01T06:56:21;5.53;;;1.83;;
7665;SDS011;3875;46.562;4.898;2023-04-01T06:59:10;3.43;;;1.63;;
7665;SDS011;3875;46.562;4.898;2023-04-01T07:08:36;4.27;;;1.50;;
7665;SDS011;3875;46.562;4.898;2023-04-01T07:24:39;4.40;;;1.40;;
7665;SDS011;3875;46.562;4.898;2023-04-01T07:27:11;8.80;;;1.43;;
7665;SDS011;3875;46.562;4.898;2023-04-01T07:29:38;6.07;;;1.53;;
7665;SDS011;3875;46.562;4.898;2023-04-01T07:40:45;6.80;;;1.20;;
7665;SDS011;3875;46.562;4.898;2023-04-01T07:51:35;6.93;;;1.40;;
7665;SDS011;3875;46.562;4.898;2023-04-01T07:54:32;4.47;;;1.53;;
7665;SDS011;3875;46.562;4.898;2023-04-01T07:57:22;4.30;;;1.60;;
7665;SDS011;3875;46.562;4.898;2023-04-01T08:10:54;4.85;;;1.55;;
7665;SDS011;3875;46.562;4.898;2023-04-01T08:21:28;5.50;;;1.40;;
7665;SDS011;3875;46.562;4.898;2023-04-01T08:24:03;3.13;;;1.20;;
7665;SDS011;3875;46.562;4.898;2023-04-01T08:26:39;4.68;;;1.70;;
7665;SDS011;3875;46.562;4.898;2023-04-01T08:29:11;4.68;;;1.75;;
7665;SDS011;3875;46.562;4.898;2023-04-01T08:31:45;5.60;;;1.70;;
7665;SDS011;3875;46.562;4.898;2023-04-01T08:34:23;5.70;;;1.65;;
7665;SDS011;3875;46.562;4.898;2023-04-01T08:36:57;7.40;;;1.30;;
7665;SDS011;3875;46.562;4.898;2023-04-01T08:39:43;4.77;;;1.40;;
7665;SDS011;3875;46.562;4.898;2023-04-01T08:56:26;4.43;;;1.55;;
7665;SDS011;3875;46.562;4.898;2023-04-01T09:04:25;3.73;;;1.07;;
7665;SDS011;3875;46.562;4.898;2023-04-01T09:15:48;5.20;;;1.10;;
7665;SDS011;3875;46.562;4.898;2023-04-01T09:21:31;4.33;;;1.17;;
7665;SDS011;3875;46.562;4.898;2023-04-01T09:24:14;5.90;;;1.60;;
7665;SDS011;3875;46.562;4.898;2023-04-01T09:26:53;3.07;;;1.10;;
7665;SDS011;3875;46.562;4.898;2023-04-01T09:40:16;5.17;;;1.30;;
7665;SDS011;3875;46.562;4.898;2023-04-01T09:57:46;2.47;;;1.00;;
7665;SDS011;3875;46.562;4.898;2023-04-01T10:09:56;4.40;;;1.30;;
7665;SDS011;3875;46.562;4.898;2023-04-01T10:40:57;2.73;;;1.10;;
7665;SDS011;3875;46.562;4.898;2023-04-01T11:56:54;2.30;;;0.80;;
7665;SDS011;3875;46.562;4.898;2023-04-01T12:00:27;2.87;;;1.00;;
7665;SDS011;3875;46.562;4.898;2023-04-01T12:11:45;3.07;;;0.90;;
7665;SDS011;3875;46.562;4.898;2023-04-01T14:07:44;3.00;;;1.10;;
7665;SDS011;3875;46.562;4.898;2023-04-01T16:43:28;0.60;;;0.60;;
7665;SDS011;3875;46.562;4.898;2023-04-01T17:03:13;0.63;;;0.50;;
7665;SDS011;3875;46.562;4.898;2023-04-01T18:26:07;0.60;;;0.60;;
7665;SDS011;3875;46.562;4.898;2023-04-01T18:28:54;0.60;;;0.60;;
7665;SDS011;3875;46.562;4.898;2023-04-01T18:31:32;0.50;;;0.50;;
7665;SDS011;3875;46.562;4.898;2023-04-01T18:34:06;1.60;;;0.67;;
7665;SDS011;3875;46.562;4.898;2023-04-01T18:36:55;0.50;;;0.50;;
7665;SDS011;3875;46.562;4.898;2023-04-01T18:39:41;0.70;;;0.70;;
7665;SDS011;3875;46.562;4.898;2023-04-01T18:45:32;0.70;;;0.60;;
7665;SDS011;3875;46.562;4.898;2023-04-01T18:51:09;1.03;;;0.60;;
7665;SDS011;3875;46.562;4.898;2023-04-01T18:56:30;2.57;;;0.90;;
7665;SDS011;3875;46.562;4.898;2023-04-01T18:59:09;1.10;;;0.87;;
7665;SDS011;3875;46.562;4.898;2023-04-01T19:02:00;0.87;;;0.70;;
7665;SDS011;3875;46.562;4.898;2023-04-01T19:04:37;1.33;;;0.63;;
7665;SDS011;3875;46.562;4.898;2023-04-01T19:09:49;0.60;;;0.60;;
7665;SDS011;3875;46.562;4.898;2023-04-01T19:15:12;2.53;;;0.70;;
7665;SDS011;3875;46.562;4.898;2023-04-01T19:26:56;0.70;;;0.70;;
7665;SDS011;3875;46.562;4.898;2023-04-01T19:38:30;1.17;;;0.83;;
7665;SDS011;3875;46.562;4.898;2023-04-01T19:44:09;1.13;;;0.80;;
7665;SDS011;3875;46.562;4.898;2023-04-01T19:46:49;1.33;;;0.80;;
7665;SDS011;3875;46.562;4.898;2023-04-01T19:49:42;3.13;;;0.90;;
7665;SDS011;3875;46.562;4.898;2023-04-01T20:08:00;0.70;;;0.70;;
7665;SDS011;3875;46.562;4.898;2023-04-01T20:16:20;1.37;;;0.80;;
7665;SDS011;3875;46.562;4.898;2023-04-01T20:21:47;0.80;;;0.80;;
7665;SDS011;3875;46.562;4.898;2023-04-01T20:24:23;1.00;;;0.90;;
7665;SDS011;3875;46.562;4.898;2023-04-01T20:27:07;0.77;;;0.77;;
7665;SDS011;3875;46.562;4.898;2023-04-01T20:35:44;0.93;;;0.70;;
7665;SDS011;3875;46.562;4.898;2023-04-01T20:44:12;1.03;;;0.83;;
7665;SDS011;3875;46.562;4.898;2023-04-01T20:49:20;2.23;;;1.03;;
7665;SDS011;3875;46.562;4.898;2023-04-01T20:51:54;0.80;;;0.70;;
7665;SDS011;3875;46.562;4.898;2023-04-01T21:18:42;0.60;;;0.60;;
7665;SDS011;3875;46.562;4.898;2023-04-01T21:29:51;0.67;;;0.60;;
7665;SDS011;3875;46.562;4.898;2023-04-01T21:32:27;1.13;;;0.80;;
7665;SDS011;3875;46.562;4.898;2023-04-01T21:38:09;2.43;;;0.80;;
7665;SDS011;3875;46.562;4.898;2023-04-01T22:07:17;1.93;;;0.90;;
7665;SDS011;3875;46.562;4.898;2023-04-01T22:12:31;2.00;;;1.00;;
7665;SDS011;3875;46.562;4.898;2023-04-01T22:15:17;1.60;;;0.83;;
7665;SDS011;3875;46.562;4.898;2023-04-01T22:25:57;2.70;;;0.70;;
7665;SDS011;3875;46.562;4.898;2023-04-01T22:31:15;4.20;;;1.10;;
7665;SDS011;3875;46.562;4.898;2023-04-01T22:39:52;3.30;;;0.90;;
7665;SDS011;3875;46.562;4.898;2023-04-01T22:50:08;1.70;;;0.83;;
7665;SDS011;3875;46.562;4.898;2023-04-01T22:55:40;1.70;;;0.80;;
7665;SDS011;3875;46.562;4.898;2023-04-01T22:58:10;4.10;;;1.20;;
7665;SDS011;3875;46.562;4.898;2023-04-01T23:00:50;2.37;;;0.97;;
7665;SDS011;3875;46.562;4.898;2023-04-01T23:03:22;1.20;;;0.87;;
7665;SDS011;3875;46.562;4.898;2023-04-01T23:06:03;1.20;;;1.10;;
7665;SDS011;3875;46.562;4.898;2023-04-01T23:11:35;1.70;;;0.70;;
7665;SDS011;3875;46.562;4.898;2023-04-01T23:16:46;1.63;;;0.90;;
7665;SDS011;3875;46.562;4.898;2023-04-01T23:19:23;0.77;;;0.73;;
7665;SDS011;3875;46.562;4.898;2023-04-01T23:22:02;5.70;;;0.90;;
7665;SDS011;3875;46.562;4.898;2023-04-01T23:24:41;1.40;;;0.90;;
7665;SDS011;3875;46.562;4.898;2023-04-01T23:27:29;1.10;;;1.00;;
7665;SDS011;3875;46.562;4.898;2023-04-01T23:30:00;3.67;;;0.83;;
7665;SDS011;3875;46.562;4.898;2023-04-01T23:32:26;2.87;;;1.00;;
7665;SDS011;3875;46.562;4.898;2023-04-01T23:34:53;2.07;;;0.90;;
7665;SDS011;3875;46.562;4.898;2023-04-01T23:37:21;3.27;;;0.77;;
7665;SDS011;3875;46.562;4.898;2023-04-01T23:39:49;2.80;;;0.93;;
7665;SDS011;3875;46.562;4.898;2023-04-01T23:44:49;1.80;;;1.10;;
7665;SDS011;3875;46.562;4.898;2023-04-01T23:47:19;0.80;;;0.80;;
7665;SDS011;3875;46.562;4.898;2023-04-01T23:49:48;2.03;;;1.00;;
7665;SDS011;3875;46.562;4.898;2023-04-01T23:57:21;1.17;;;0.83;;
